Terminal Aerodrome Forecast
Issued by NWS

Home | Current Version | Previous Version | Text Only | Print | Product List | Glossary On
Versions: 1 2 3 4 5 6 7 8 9 10 11 12 13 14 15 16 17
000
FTUS43 KEAX 022300
TAFSTJ
TAF
KSTJ 022335Z 0300/0324 14011KT P6SM BKN030
     FM030300 16013KT 3SM -DZ BR OVC012
     FM031400 20018G25KT P6SM OVC030
     FM032000 30015G23KT P6SM BKN035=

USA.gov is the U.S. government's official web portal to all federal, state and local government web resources and services.